This is the latest recevied weather packets stored in our database for station/object F4MLU-13. If no packets are shown the sender has not sent any weather packets the latest 10 day(s).
| Time | Temp. | Humidity | Pressure | Rain* | Wind** | Luminosity | Snow |
|---|---|---|---|---|---|---|---|
| 1777483243 | 18.89° C | 93% | - | 0 mm | - | - | - |
| 1777479063 | 20.56° C | 84% | - | 0 mm | - | - | - |
| 1777478443 | 20.56° C | 81% | - | 0 mm | - | - | - |
| 1777477244 | 20.56° C | 81% | - | 0 mm | - | - | - |
| 1777475493 | 20° C | 83% | - | 0 mm | - | - | - |
| 1777474843 | 20° C | 83% | - | 0 mm | - | - | - |
| 1777474243 | 20° C | 83% | - | 0 mm | - | - | - |
| 1777473643 | 20.56° C | 83% | - | 0 mm | - | - | - |
| 1777465844 | 20.56° C | 78% | - | 0 mm | - | - | - |
| 1777456844 | 17.78° C | 82% | - | 0 mm | - | - | - |
| 1777455044 | 18.33° C | 80% | - | 0 mm | - | - | - |
| 1777453864 | 16.11° C | 87% | - | 0 mm | - | - | - |
| 1777453244 | 16.67° C | 86% | - | 0 mm | - | - | - |
| 1777451444 | 15° C | 91% | - | 0 mm | - | - | - |
| 1777447864 | 13.89° C | 94% | - | 0 mm | - | - | - |
| 1777444844 | 13.33° C | 98% | - | 0 mm | - | - | - |
| 1777441844 | 12.78° C | 99% | - | 0 mm | - | - | - |
| 1777432845 | 12.78° C | 99% | - | 0 mm | - | - | - |
| 1777432265 | 12.78° C | 99% | - | 0 mm | - | - | - |
| 1777431085 | 12.78° C | 99% | - | 0 mm | - | - | - |
| 1777428645 | 12.78° C | 99% | - | 0 mm | - | - | - |
| 1777423245 | 12.22° C | 99% | - | 0 mm | - | - | - |
| 1777419665 | 11.67° C | 99% | - | 0 mm | - | - | - |
| 1777417845 | 11.67° C | 99% | - | 0 mm | - | - | - |
| 1777417265 | 11.11° C | 99% | - | 0 mm | - | - | - |
* Rain latest hour (hover to see other rain measurements)
** Current wind speed in m/s (hover to see current wind gust speed)